SAS1320 ENGM-ENAL
Flight info
| Callsign | SAS1320 |
|---|---|
| Flight time | 0h 34m |
| Altitude | 38000 |
| Route | EVTOG DCT UTRUF DCT UFGUG DCT OBITI |
| Aircraft | B738/M-SDE2E3FGHIRWXY/LB1 |
Departure
| Time | 2026-05-07 13:33 |
|---|---|
| Airport | Oslo-Gardermoen International Airport (ENGM) |
Arrival
| Time | 2026-05-07 14:08 |
|---|---|
| Airport | Ålesund Airport (ENAL) |
| Time | Latitude | Longitude | Altitude | Speed | Heading |
|---|---|---|---|---|---|
| 2026-05-07 13:15 | 60.19553 | 11.09502 | 680 ft | 0 kts | 196° |
| 2026-05-07 13:24 | 60.19559 | 11.09506 | 680 ft | 2 kts | 195° |
| 2026-05-07 13:25 | 60.19575 | 11.09515 | 678 ft | 2 kts | 196° |
| 2026-05-07 13:25 | 60.19591 | 11.09524 | 679 ft | 2 kts | 195° |
| 2026-05-07 13:25 | 60.19597 | 11.09528 | 677 ft | 0 kts | 197° |
| 2026-05-07 13:28 | 60.19596 | 11.09527 | 677 ft | 0 kts | 200° |
| 2026-05-07 13:28 | 60.19593 | 11.09513 | 680 ft | 2 kts | 253° |
| 2026-05-07 13:29 | 60.19605 | 11.09494 | 679 ft | 3 kts | 342° |
| 2026-05-07 13:29 | 60.19641 | 11.09470 | 678 ft | 8 kts | 342° |
| 2026-05-07 13:29 | 60.19683 | 11.09384 | 680 ft | 10 kts | 293° |
| 2026-05-07 13:29 | 60.19706 | 11.09229 | 681 ft | 13 kts | 285° |
| 2026-05-07 13:30 | 60.19735 | 11.09036 | 678 ft | 16 kts | 287° |
| 2026-05-07 13:30 | 60.19769 | 11.08792 | 673 ft | 16 kts | 285° |
| 2026-05-07 13:30 | 60.19844 | 11.08714 | 677 ft | 14 kts | 14° |
| 2026-05-07 13:30 | 60.19947 | 11.08773 | 677 ft | 16 kts | 16° |
| 2026-05-07 13:31 | 60.20063 | 11.08841 | 677 ft | 18 kts | 16° |
| 2026-05-07 13:31 | 60.20188 | 11.08912 | 678 ft | 19 kts | 15° |
| 2026-05-07 13:31 | 60.20319 | 11.08986 | 678 ft | 21 kts | 15° |
| 2026-05-07 13:31 | 60.20463 | 11.09069 | 675 ft | 22 kts | 16° |
| 2026-05-07 13:32 | 60.20605 | 11.09141 | 675 ft | 18 kts | 354° |
| 2026-05-07 13:32 | 60.20665 | 11.08930 | 678 ft | 19 kts | 285° |
| 2026-05-07 13:32 | 60.20700 | 11.08686 | 676 ft | 12 kts | 284° |
| 2026-05-07 13:32 | 60.20671 | 11.08627 | 676 ft | 6 kts | 197° |
| 2026-05-07 13:33 | 60.20464 | 11.08507 | 678 ft | 74 kts | 196° |
| 2026-05-07 13:33 | 60.19686 | 11.08058 | 673 ft | 155 kts | 196° |
| 2026-05-07 13:33 | 60.18501 | 11.07387 | 1174 ft | 186 kts | 195° |
| 2026-05-07 13:33 | 60.17217 | 11.06712 | 2161 ft | 198 kts | 196° |
| 2026-05-07 13:34 | 60.15838 | 11.05955 | 2924 ft | 215 kts | 202° |
| 2026-05-07 13:34 | 60.14373 | 11.00759 | 4437 ft | 236 kts | 264° |
| 2026-05-07 13:34 | 60.14110 | 10.97345 | 5133 ft | 256 kts | 259° |
| 2026-05-07 13:35 | 60.13938 | 10.93748 | 6156 ft | 262 kts | 272° |
| 2026-05-07 13:35 | 60.13940 | 10.90077 | 7261 ft | 264 kts | 268° |
| 2026-05-07 13:35 | 60.13843 | 10.86384 | 8371 ft | 265 kts | 267° |
| 2026-05-07 13:35 | 60.14016 | 10.82740 | 9386 ft | 270 kts | 292° |
| 2026-05-07 13:36 | 60.15153 | 10.79790 | 10482 ft | 271 kts | 317° |
| 2026-05-07 13:36 | 60.16624 | 10.77211 | 11001 ft | 293 kts | 317° |
| 2026-05-07 13:36 | 60.18249 | 10.74392 | 11228 ft | 323 kts | 317° |
| 2026-05-07 13:36 | 60.19997 | 10.71363 | 11628 ft | 343 kts | 317° |
| 2026-05-07 13:37 | 60.21826 | 10.68183 | 12484 ft | 349 kts | 317° |
| 2026-05-07 13:37 | 60.23675 | 10.64956 | 13475 ft | 352 kts | 316° |
| 2026-05-07 13:37 | 60.25537 | 10.61688 | 14368 ft | 355 kts | 316° |
| 2026-05-07 13:37 | 60.27390 | 10.58421 | 15209 ft | 358 kts | 316° |
| 2026-05-07 13:38 | 60.29271 | 10.55094 | 16061 ft | 361 kts | 315° |
| 2026-05-07 13:38 | 60.31167 | 10.51730 | 16917 ft | 364 kts | 315° |
| 2026-05-07 13:38 | 60.33052 | 10.48375 | 17736 ft | 367 kts | 315° |
| 2026-05-07 13:38 | 60.34978 | 10.44941 | 18536 ft | 372 kts | 315° |
| 2026-05-07 13:39 | 60.36932 | 10.41450 | 19256 ft | 374 kts | 315° |
| 2026-05-07 13:39 | 60.38888 | 10.37951 | 20051 ft | 374 kts | 314° |
| 2026-05-07 13:39 | 60.40839 | 10.34456 | 20832 ft | 374 kts | 314° |
| 2026-05-07 13:39 | 60.42781 | 10.30970 | 21506 ft | 377 kts | 314° |
| 2026-05-07 13:40 | 60.44747 | 10.27434 | 22204 ft | 379 kts | 314° |
| 2026-05-07 13:40 | 60.46735 | 10.23854 | 22894 ft | 381 kts | 314° |
| 2026-05-07 13:40 | 60.48701 | 10.20306 | 23564 ft | 384 kts | 314° |
| 2026-05-07 13:40 | 60.50707 | 10.16679 | 24094 ft | 386 kts | 314° |
| 2026-05-07 13:41 | 60.52721 | 10.13032 | 24620 ft | 388 kts | 314° |
| 2026-05-07 13:41 | 60.54746 | 10.09360 | 25138 ft | 390 kts | 314° |
| 2026-05-07 13:41 | 60.56755 | 10.05709 | 25629 ft | 392 kts | 314° |
| 2026-05-07 13:41 | 60.58797 | 10.01994 | 26145 ft | 394 kts | 313° |
| 2026-05-07 13:42 | 60.60846 | 9.98256 | 26623 ft | 397 kts | 313° |
| 2026-05-07 13:42 | 60.62913 | 9.94480 | 27077 ft | 399 kts | 313° |
| 2026-05-07 13:42 | 60.64988 | 9.90685 | 27518 ft | 402 kts | 313° |
| 2026-05-07 13:42 | 60.67075 | 9.86859 | 27975 ft | 403 kts | 313° |
| 2026-05-07 13:43 | 60.69173 | 9.83007 | 28436 ft | 405 kts | 313° |
| 2026-05-07 13:43 | 60.71268 | 9.79161 | 28953 ft | 404 kts | 313° |
| 2026-05-07 13:43 | 60.73354 | 9.75318 | 29535 ft | 403 kts | 313° |
| 2026-05-07 13:43 | 60.75405 | 9.71533 | 30182 ft | 399 kts | 313° |
| 2026-05-07 13:44 | 60.77463 | 9.67729 | 30704 ft | 398 kts | 313° |
| 2026-05-07 13:44 | 60.79522 | 9.63911 | 31045 ft | 399 kts | 313° |
| 2026-05-07 13:44 | 60.81587 | 9.60073 | 31379 ft | 401 kts | 312° |
| 2026-05-07 13:44 | 60.83631 | 9.56268 | 31788 ft | 401 kts | 312° |
| 2026-05-07 13:45 | 60.85694 | 9.52424 | 32248 ft | 399 kts | 312° |
| 2026-05-07 13:45 | 60.93022 | 9.38722 | 33563 ft | 400 kts | 312° |
| 2026-05-07 13:45 | 61.01234 | 9.23253 | 34809 ft | 402 kts | 312° |
| 2026-05-07 13:45 | 61.09631 | 9.07294 | 35362 ft | 417 kts | 312° |
| 2026-05-07 13:46 | 61.17570 | 8.92130 | 36197 ft | 418 kts | 313° |
| 2026-05-07 13:46 | 61.26445 | 8.75022 | 36146 ft | 431 kts | 313° |
| 2026-05-07 13:47 | 61.43969 | 8.40852 | 36149 ft | 426 kts | 312° |
| 2026-05-07 13:47 | 61.54081 | 8.20892 | 36141 ft | 420 kts | 312° |
| 2026-05-07 13:47 | 61.56203 | 8.16671 | 35767 ft | 424 kts | 311° |
| 2026-05-07 13:48 | 61.58298 | 8.12498 | 35211 ft | 421 kts | 311° |
| 2026-05-07 13:48 | 61.60408 | 8.08297 | 34748 ft | 414 kts | 311° |
| 2026-05-07 13:48 | 61.62500 | 8.04119 | 33571 ft | 419 kts | 311° |
| 2026-05-07 13:48 | 61.64584 | 7.99945 | 32797 ft | 413 kts | 310° |
| 2026-05-07 13:49 | 61.66690 | 7.95795 | 32111 ft | 407 kts | 312° |
| 2026-05-07 13:49 | 61.68763 | 7.91960 | 31883 ft | 394 kts | 313° |
| 2026-05-07 13:49 | 61.70826 | 7.88231 | 31240 ft | 391 kts | 313° |
| 2026-05-07 13:49 | 61.72892 | 7.84494 | 30718 ft | 385 kts | 313° |
| 2026-05-07 13:50 | 61.74905 | 7.80827 | 30035 ft | 383 kts | 313° |
| 2026-05-07 13:50 | 61.76904 | 7.77167 | 29367 ft | 378 kts | 312° |
| 2026-05-07 13:50 | 61.78868 | 7.73551 | 28771 ft | 371 kts | 312° |
| 2026-05-07 13:50 | 61.80797 | 7.69986 | 28188 ft | 366 kts | 312° |
| 2026-05-07 13:51 | 61.82698 | 7.66460 | 27626 ft | 360 kts | 312° |
| 2026-05-07 13:51 | 61.84565 | 7.62989 | 27044 ft | 356 kts | 312° |
| 2026-05-07 13:51 | 61.86423 | 7.59525 | 26495 ft | 354 kts | 312° |
| 2026-05-07 13:51 | 61.88250 | 7.56111 | 25938 ft | 354 kts | 312° |
| 2026-05-07 13:52 | 61.90118 | 7.52610 | 25336 ft | 362 kts | 313° |
| 2026-05-07 13:52 | 61.92020 | 7.49041 | 24766 ft | 367 kts | 313° |
| 2026-05-07 13:52 | 61.93934 | 7.45456 | 24158 ft | 365 kts | 313° |
| 2026-05-07 13:52 | 61.95831 | 7.41902 | 23571 ft | 361 kts | 313° |
| 2026-05-07 13:53 | 61.97705 | 7.38381 | 22868 ft | 358 kts | 313° |
| 2026-05-07 13:53 | 61.99554 | 7.34900 | 22276 ft | 352 kts | 313° |
| 2026-05-07 13:53 | 62.01318 | 7.31338 | 21560 ft | 347 kts | 308° |
| 2026-05-07 13:53 | 62.02872 | 7.27372 | 20881 ft | 345 kts | 304° |
| 2026-05-07 13:54 | 62.04340 | 7.23331 | 20247 ft | 344 kts | 303° |
| 2026-05-07 13:54 | 62.05791 | 7.19320 | 19658 ft | 341 kts | 304° |
| 2026-05-07 13:54 | 62.07309 | 7.15527 | 18877 ft | 343 kts | 313° |
| 2026-05-07 13:54 | 62.09242 | 7.12433 | 17676 ft | 354 kts | 324° |
| 2026-05-07 13:55 | 62.11462 | 7.10068 | 16555 ft | 360 kts | 335° |
| 2026-05-07 13:55 | 62.13820 | 7.08253 | 15670 ft | 359 kts | 336° |
| 2026-05-07 13:55 | 62.16168 | 7.06518 | 15170 ft | 354 kts | 337° |
| 2026-05-07 13:55 | 62.18487 | 7.04808 | 14696 ft | 349 kts | 337° |
| 2026-05-07 13:56 | 62.20787 | 7.03101 | 14146 ft | 347 kts | 337° |
| 2026-05-07 13:56 | 62.23031 | 7.01423 | 13547 ft | 344 kts | 337° |
| 2026-05-07 13:56 | 62.25281 | 6.99712 | 12987 ft | 342 kts | 337° |
| 2026-05-07 13:56 | 62.27515 | 6.98011 | 12389 ft | 340 kts | 337° |
| 2026-05-07 13:57 | 62.29734 | 6.96321 | 11797 ft | 337 kts | 338° |
| 2026-05-07 13:57 | 62.31932 | 6.94641 | 11199 ft | 334 kts | 338° |
| 2026-05-07 13:57 | 62.34098 | 6.92982 | 10915 ft | 324 kts | 338° |
| 2026-05-07 13:57 | 62.36170 | 6.91396 | 10838 ft | 308 kts | 338° |
| 2026-05-07 13:58 | 62.38149 | 6.89877 | 10728 ft | 294 kts | 338° |
| 2026-05-07 13:58 | 62.40008 | 6.88447 | 10628 ft | 281 kts | 338° |
| 2026-05-07 13:58 | 62.41813 | 6.87057 | 10460 ft | 272 kts | 338° |
| 2026-05-07 13:58 | 62.43585 | 6.85686 | 10133 ft | 268 kts | 338° |
| 2026-05-07 13:59 | 62.45316 | 6.84347 | 9837 ft | 264 kts | 338° |
| 2026-05-07 13:59 | 62.47070 | 6.82986 | 9294 ft | 270 kts | 338° |
| 2026-05-07 13:59 | 62.48844 | 6.81609 | 8913 ft | 270 kts | 338° |
| 2026-05-07 13:59 | 62.50604 | 6.80243 | 8536 ft | 269 kts | 338° |
| 2026-05-07 14:00 | 62.52345 | 6.78889 | 8164 ft | 268 kts | 338° |
| 2026-05-07 14:00 | 62.54100 | 6.77524 | 7819 ft | 267 kts | 338° |
| 2026-05-07 14:00 | 62.55853 | 6.76159 | 7465 ft | 268 kts | 339° |
| 2026-05-07 14:00 | 62.57608 | 6.74790 | 7116 ft | 266 kts | 339° |
| 2026-05-07 14:01 | 62.59348 | 6.73433 | 6767 ft | 266 kts | 339° |
| 2026-05-07 14:01 | 62.61090 | 6.72074 | 6418 ft | 265 kts | 339° |
| 2026-05-07 14:01 | 62.62796 | 6.70740 | 6120 ft | 263 kts | 339° |
| 2026-05-07 14:01 | 62.64502 | 6.69403 | 5944 ft | 255 kts | 339° |
| 2026-05-07 14:02 | 62.66106 | 6.67926 | 5756 ft | 245 kts | 322° |
| 2026-05-07 14:02 | 62.67074 | 6.65125 | 5582 ft | 229 kts | 281° |
| 2026-05-07 14:02 | 62.67067 | 6.61851 | 5431 ft | 211 kts | 252° |
| 2026-05-07 14:02 | 62.66507 | 6.58961 | 5221 ft | 206 kts | 240° |
| 2026-05-07 14:03 | 62.65846 | 6.56196 | 4939 ft | 206 kts | 240° |
| 2026-05-07 14:03 | 62.65243 | 6.53364 | 4680 ft | 204 kts | 245° |
| 2026-05-07 14:03 | 62.64703 | 6.50600 | 4466 ft | 198 kts | 244° |
| 2026-05-07 14:03 | 62.64110 | 6.47808 | 3933 ft | 205 kts | 243° |
| 2026-05-07 14:04 | 62.63499 | 6.45024 | 3466 ft | 206 kts | 243° |
| 2026-05-07 14:04 | 62.62886 | 6.42243 | 3168 ft | 196 kts | 243° |
| 2026-05-07 14:04 | 62.62312 | 6.39643 | 2890 ft | 186 kts | 244° |
| 2026-05-07 14:04 | 62.61765 | 6.37163 | 2612 ft | 178 kts | 244° |
| 2026-05-07 14:05 | 62.61248 | 6.34814 | 2368 ft | 169 kts | 245° |
| 2026-05-07 14:05 | 62.60754 | 6.32567 | 2151 ft | 165 kts | 245° |
| 2026-05-07 14:05 | 62.60253 | 6.30289 | 1920 ft | 166 kts | 245° |
| 2026-05-07 14:05 | 62.59773 | 6.28105 | 1686 ft | 156 kts | 245° |
| 2026-05-07 14:06 | 62.59318 | 6.26027 | 1457 ft | 154 kts | 245° |
| 2026-05-07 14:06 | 62.58870 | 6.23983 | 1257 ft | 146 kts | 244° |
| 2026-05-07 14:06 | 62.58447 | 6.22053 | 1028 ft | 137 kts | 245° |
| 2026-05-07 14:06 | 62.58048 | 6.20231 | 830 ft | 134 kts | 244° |
| 2026-05-07 14:07 | 62.57649 | 6.18410 | 658 ft | 134 kts | 246° |
| 2026-05-07 14:07 | 62.57254 | 6.16600 | 510 ft | 132 kts | 246° |
| 2026-05-07 14:07 | 62.56851 | 6.14766 | 294 ft | 135 kts | 246° |
| 2026-05-07 14:07 | 62.56473 | 6.12979 | 126 ft | 129 kts | 245° |
| 2026-05-07 14:08 | 62.56114 | 6.11330 | 67 ft | 105 kts | 244° |
| 2026-05-07 14:08 | 62.55986 | 6.10766 | 67 ft | 14 kts | 225° |
| 2026-05-07 14:08 | 62.55927 | 6.10811 | 74 ft | 10 kts | 109° |
| 2026-05-07 14:08 | 62.55910 | 6.10954 | 69 ft | 10 kts | 104° |
| 2026-05-07 14:09 | 62.55898 | 6.11096 | 67 ft | 9 kts | 85° |
| 2026-05-07 14:09 | 62.55910 | 6.11189 | 72 ft | 10 kts | 67° |
| 2026-05-07 14:09 | 62.55927 | 6.11345 | 66 ft | 5 kts | 140° |
| 2026-05-07 14:09 | 62.55898 | 6.11379 | 71 ft | 4 kts | 154° |
| 2026-05-07 14:10 | 62.55893 | 6.11385 | 72 ft | 0 kts | 154° |